Time;durP1;ratioP1;P1;durP2;ratioP2;P2;SDS_P1;SDS_P2;PMS_P1;PMS_P2;Temp;Humidity;BMP_temperature;BMP_pressure;BME280_temperature;BME280_humidity;BME280_pressure;Samples;Min_cycle;Max_cycle;Signal;HPM_P1;HPM_P2
2022/03/25 00:01:49;;;;;;;;;;;21.40;39.30;;;;;;5075975;28;19928;-40
2022/03/25 00:04:17;;;;;;;;;;;21.40;39.20;;;;;;5072622;28;19939;-43
2022/03/25 00:06:44;;;;;;;;;;;21.40;39.30;;;;;;5055832;28;19925;-44
2022/03/25 00:09:11;;;;;;;;;;;21.40;39.30;;;;;;5056170;28;19925;-40
2022/03/25 00:11:38;;;;;;;;;;;21.40;39.30;;;;;;5055808;28;19978;-43
2022/03/25 00:14:05;;;;;;;;;;;21.40;39.30;;;;;;5056054;28;19925;-42
2022/03/25 00:16:32;;;;;;;;;;;21.40;39.30;;;;;;5055748;28;19941;-39
2022/03/25 00:18:59;;;;;;;;;;;21.30;39.20;;;;;;5055675;28;19928;-40
2022/03/25 00:21:26;;;;;;;;;;;21.30;39.20;;;;;;5073346;28;19924;-39
2022/03/25 00:23:53;;;;;;;;;;;21.30;39.20;;;;;;5075605;28;19925;-39
2022/03/25 00:26:20;;;;;;;;;;;21.30;39.20;;;;;;5075776;28;19928;-43
2022/03/25 00:28:47;;;;;;;;;;;21.30;39.20;;;;;;5075515;28;20351;-40
2022/03/25 00:31:14;;;;;;;;;;;21.30;39.30;;;;;;5075763;28;19948;-45
2022/03/25 00:33:43;;;;;;;;;;;21.30;39.30;;;;;;5075739;28;20105;-40
2022/03/25 00:36:10;;;;;;;;;;;21.30;39.30;;;;;;5073748;28;19951;-45
2022/03/25 00:38:37;;;;;;;;;;;21.30;39.30;;;;;;5075641;28;20324;-40
2022/03/25 00:41:06;;;;;;;;;;;21.30;39.30;;;;;;5075244;28;19925;-41
2022/03/25 00:43:36;;;;;;;;;;;21.30;39.30;;;;;;5075199;28;19928;-40
2022/03/25 00:46:03;;;;;;;;;;;21.30;39.30;;;;;;5075047;28;19924;-39
2022/03/25 00:48:32;;;;;;;;;;;21.30;39.30;;;;;;5075098;28;19967;-44
2022/03/25 00:50:59;;;;;;;;;;;21.30;39.30;;;;;;5061530;28;20300;-40
2022/03/25 00:53:26;;;;;;;;;;;21.30;39.30;;;;;;5055355;28;19932;-39
2022/03/25 00:55:53;;;;;;;;;;;21.30;39.40;;;;;;5054972;28;19929;-39
2022/03/25 00:58:21;;;;;;;;;;;21.30;39.30;;;;;;5054952;28;19932;-40
2022/03/25 01:00:48;;;;;;;;;;;21.30;39.30;;;;;;5055183;28;19928;-37
2022/03/25 01:03:16;;;;;;;;;;;21.30;39.30;;;;;;5054862;28;19924;-39
2022/03/25 01:05:43;;;;;;;;;;;21.30;39.30;;;;;;5062762;28;19924;-40
2022/03/25 01:08:11;;;;;;;;;;;21.20;39.20;;;;;;5074603;28;19928;-41
2022/03/25 01:10:38;;;;;;;;;;;21.30;39.30;;;;;;5074946;28;19931;-39
2022/03/25 01:13:06;;;;;;;;;;;21.30;39.30;;;;;;5074908;28;19932;-40
2022/03/25 01:15:33;;;;;;;;;;;21.30;39.30;;;;;;5074860;28;19970;-39
2022/03/25 01:18:00;;;;;;;;;;;21.30;39.40;;;;;;5074454;28;19935;-38
2022/03/25 01:20:29;;;;;;;;;;;21.30;39.30;;;;;;5072723;28;19931;-43
2022/03/25 01:22:57;;;;;;;;;;;21.30;39.30;;;;;;5074461;28;19931;-40
2022/03/25 01:25:24;;;;;;;;;;;21.30;39.30;;;;;;5074356;28;19925;-39
2022/03/25 01:27:51;;;;;;;;;;;21.30;39.30;;;;;;5074535;28;20060;-40
2022/03/25 01:30:18;;;;;;;;;;;21.30;39.30;;;;;;5074286;28;19928;-39
2022/03/25 01:32:45;;;;;;;;;;;21.30;39.30;;;;;;5074224;28;19974;-39
2022/03/25 01:35:13;;;;;;;;;;;21.20;39.30;;;;;;5072651;28;20392;-39
2022/03/25 01:37:41;;;;;;;;;;;21.20;39.30;;;;;;5074150;28;19924;-39
2022/03/25 01:40:09;;;;;;;;;;;21.20;39.20;;;;;;5074107;28;19924;-39
2022/03/25 01:42:39;;;;;;;;;;;21.20;39.20;;;;;;5074077;28;19932;-41
2022/03/25 01:45:06;;;;;;;;;;;21.20;39.30;;;;;;5074278;28;19925;-40
2022/03/25 01:47:33;;;;;;;;;;;21.20;39.30;;;;;;5073882;28;19924;-39
2022/03/25 01:50:01;;;;;;;;;;;21.20;39.30;;;;;;5074263;28;19989;-40
2022/03/25 01:52:28;;;;;;;;;;;21.20;39.30;;;;;;5052561;28;20288;-40
2022/03/25 01:55:13;;;;;;;;;;;21.20;39.30;;;;;;5054232;28;20353;-39
2022/03/25 01:57:40;;;;;;;;;;;21.20;39.30;;;;;;5054226;28;20086;-39
2022/03/25 02:00:07;;;;;;;;;;;21.20;39.30;;;;;;5054113;28;19925;-40
2022/03/25 02:02:36;;;;;;;;;;;21.20;39.30;;;;;;5054117;28;19924;-38
2022/03/25 02:05:04;;;;;;;;;;;21.20;39.40;;;;;;5053616;28;19931;-42
2022/03/25 02:07:31;;;;;;;;;;;21.20;39.30;;;;;;5071366;28;20261;-39
2022/03/25 02:09:59;;;;;;;;;;;21.20;39.30;;;;;;5073679;28;19924;-39
2022/03/25 02:12:26;;;;;;;;;;;21.20;39.30;;;;;;5073696;28;19924;-38
2022/03/25 02:14:56;;;;;;;;;;;21.20;39.40;;;;;;5073917;28;19931;-43
2022/03/25 02:17:23;;;;;;;;;;;21.20;39.40;;;;;;5073602;28;20308;-47
2022/03/25 02:19:50;;;;;;;;;;;21.20;39.40;;;;;;5073560;28;19958;-47
2022/03/25 02:22:17;;;;;;;;;;;21.20;39.30;;;;;;5071917;28;20351;-46
2022/03/25 02:24:47;;;;;;;;;;;21.20;39.40;;;;;;5072864;28;20201;-44
2022/03/25 02:27:16;;;;;;;;;;;21.20;39.30;;;;;;5073410;28;20097;-46
2022/03/25 02:29:44;;;;;;;;;;;21.20;39.40;;;;;;5073465;28;19928;-47
2022/03/25 02:32:11;;;;;;;;;;;21.20;39.40;;;;;;5073449;28;19924;-47
2022/03/25 02:34:39;;;;;;;;;;;21.20;39.40;;;;;;5073347;28;20388;-40
2022/03/25 02:37:06;;;;;;;;;;;21.20;39.40;;;;;;5059733;28;20343;-49
2022/03/25 02:39:33;;;;;;;;;;;21.20;39.40;;;;;;5053331;28;19931;-45
2022/03/25 02:42:00;;;;;;;;;;;21.20;39.40;;;;;;5053634;28;19928;-43
2022/03/25 02:44:27;;;;;;;;;;;21.20;39.40;;;;;;5053639;28;19947;-42
2022/03/25 02:46:55;;;;;;;;;;;21.10;39.30;;;;;;5053211;28;19987;-43
2022/03/25 02:49:22;;;;;;;;;;;21.10;39.30;;;;;;5053587;28;20296;-43
2022/03/25 02:51:49;;;;;;;;;;;21.10;39.30;;;;;;5060797;28;19977;-43
2022/03/25 02:54:16;;;;;;;;;;;21.10;39.30;;;;;;5073251;28;19964;-48
2022/03/25 02:56:43;;;;;;;;;;;21.10;39.30;;;;;;5073206;28;20013;-44
2022/03/25 02:59:10;;;;;;;;;;;21.10;39.30;;;;;;5073194;28;19977;-43
2022/03/25 03:01:37;;;;;;;;;;;21.10;39.30;;;;;;5073484;28;19978;-40
2022/03/25 03:04:04;;;;;;;;;;;21.10;39.30;;;;;;5076684;28;19968;-44
2022/03/25 03:06:31;;;;;;;;;;;21.10;39.30;;;;;;5075254;28;19935;-42
2022/03/25 03:08:58;;;;;;;;;;;21.20;39.40;;;;;;5077273;28;19924;-44
2022/03/25 03:11:25;;;;;;;;;;;21.10;39.30;;;;;;5077761;28;19974;-43
2022/03/25 03:13:51;;;;;;;;;;;21.10;39.30;;;;;;5076887;28;19931;-42
2022/03/25 03:16:19;;;;;;;;;;;21.10;39.30;;;;;;5059128;28;19975;-47
2022/03/25 03:18:46;;;;;;;;;;;21.10;39.30;;;;;;5077097;28;20427;-39
2022/03/25 03:21:13;;;;;;;;;;;21.10;39.30;;;;;;5073786;28;19924;-40
2022/03/25 03:23:40;;;;;;;;;;;21.10;39.30;;;;;;5057035;28;19955;-42
2022/03/25 03:26:07;;;;;;;;;;;21.10;39.30;;;;;;5056670;28;19975;-41
2022/03/25 03:28:35;;;;;;;;;;;21.10;39.30;;;;;;5056868;28;19971;-39
2022/03/25 03:31:02;;;;;;;;;;;21.10;39.30;;;;;;5056576;28;19924;-39
2022/03/25 03:33:29;;;;;;;;;;;21.10;39.30;;;;;;5056531;28;19924;-39
2022/03/25 03:35:56;;;;;;;;;;;21.10;39.30;;;;;;5056395;28;19925;-40
2022/03/25 03:38:23;;;;;;;;;;;21.10;39.30;;;;;;5055435;28;20377;-40
2022/03/25 03:40:50;;;;;;;;;;;21.10;39.30;;;;;;5056414;28;19972;-41
2022/03/25 03:43:17;;;;;;;;;;;21.10;39.30;;;;;;5056375;28;20019;-42
2022/03/25 03:45:43;;;;;;;;;;;21.10;39.30;;;;;;5056654;28;19975;-39
2022/03/25 03:48:11;;;;;;;;;;;21.10;40.00;;;;;;5056196;28;19979;-39
2022/03/25 03:50:38;;;;;;;;;;;21.10;39.30;;;;;;5056110;28;20011;-41
2022/03/25 03:53:05;;;;;;;;;;;21.10;39.30;;;;;;5055322;28;19925;-42
2022/03/25 03:55:34;;;;;;;;;;;21.10;39.40;;;;;;5056457;28;20265;-39
2022/03/25 03:58:01;;;;;;;;;;;21.10;39.30;;;;;;5056065;28;19978;-44
2022/03/25 04:00:28;;;;;;;;;;;21.10;39.40;;;;;;5056050;28;20012;-41
2022/03/25 04:02:55;;;;;;;;;;;21.10;39.40;;;;;;5038836;28;20296;-40
2022/03/25 04:05:23;;;;;;;;;;;21.00;39.30;;;;;;5055838;28;20016;-41
2022/03/25 04:07:50;;;;;;;;;;;21.10;39.40;;;;;;5065017;28;19970;-40
2022/03/25 04:10:17;;;;;;;;;;;21.10;39.40;;;;;;5075915;28;19976;-40
2022/03/25 04:12:44;;;;;;;;;;;21.00;39.30;;;;;;5075848;28;19925;-39
2022/03/25 04:15:12;;;;;;;;;;;21.10;39.40;;;;;;5075883;28;20372;-42
2022/03/25 04:17:41;;;;;;;;;;;21.00;39.30;;;;;;5076304;28;19947;-41
2022/03/25 04:20:09;;;;;;;;;;;21.10;39.40;;;;;;5075657;28;19925;-40
2022/03/25 04:22:36;;;;;;;;;;;21.10;39.40;;;;;;5073911;28;19924;-39
2022/03/25 04:25:05;;;;;;;;;;;21.00;39.30;;;;;;5075613;28;19974;-39
2022/03/25 04:27:32;;;;;;;;;;;21.00;39.30;;;;;;5075820;28;20331;-41
2022/03/25 04:29:59;;;;;;;;;;;21.00;39.30;;;;;;5075487;28;19924;-40
2022/03/25 04:32:27;;;;;;;;;;;21.00;39.30;;;;;;5075783;28;19931;-39
2022/03/25 04:34:54;;;;;;;;;;;21.00;39.30;;;;;;5075293;28;19925;-40
2022/03/25 04:37:21;;;;;;;;;;;21.00;39.30;;;;;;5070626;28;20451;-41
2022/03/25 04:39:48;;;;;;;;;;;21.00;39.30;;;;;;5055626;28;20008;-41
2022/03/25 04:42:15;;;;;;;;;;;21.00;39.40;;;;;;5055306;28;19929;-41
2022/03/25 04:44:42;;;;;;;;;;;21.00;39.30;;;;;;5055532;28;19924;-41
2022/03/25 04:47:09;;;;;;;;;;;21.00;39.40;;;;;;5055373;28;19925;-42
2022/03/25 04:49:36;;;;;;;;;;;21.00;39.40;;;;;;5055135;28;19925;-38
2022/03/25 04:52:03;;;;;;;;;;;21.00;39.40;;;;;;5054272;28;19928;-41
2022/03/25 04:54:30;;;;;;;;;;;21.00;39.40;;;;;;5074986;28;19951;-39
2022/03/25 04:56:57;;;;;;;;;;;21.00;39.40;;;;;;5075231;28;19994;-39
2022/03/25 04:59:24;;;;;;;;;;;21.00;39.40;;;;;;5074858;28;20368;-39
2022/03/25 05:01:51;;;;;;;;;;;21.00;39.40;;;;;;5074839;28;19950;-39
2022/03/25 05:04:18;;;;;;;;;;;21.00;39.30;;;;;;5075153;28;19954;-38
2022/03/25 05:06:45;;;;;;;;;;;21.00;39.40;;;;;;5074659;28;19924;-39
2022/03/25 05:09:13;;;;;;;;;;;21.00;39.40;;;;;;5073139;28;19924;-40
2022/03/25 05:11:41;;;;;;;;;;;21.00;39.30;;;;;;5075012;28;19978;-39
2022/03/25 05:14:08;;;;;;;;;;;21.00;39.40;;;;;;5074591;28;19925;-39
2022/03/25 05:16:36;;;;;;;;;;;21.00;39.30;;;;;;5074596;28;20377;-39
2022/03/25 05:19:03;;;;;;;;;;;21.00;39.30;;;;;;5057097;28;19967;-39
2022/03/25 05:21:30;;;;;;;;;;;21.00;39.30;;;;;;5074105;28;20384;-39
2022/03/25 05:23:57;;;;;;;;;;;21.00;39.30;;;;;;5073282;28;19925;-39
2022/03/25 05:26:23;;;;;;;;;;;21.00;39.30;;;;;;5073426;28;19947;-41
2022/03/25 05:28:50;;;;;;;;;;;21.00;39.30;;;;;;5074243;28;19924;-39
2022/03/25 05:31:17;;;;;;;;;;;21.00;39.30;;;;;;5074905;28;19986;-39
2022/03/25 05:33:44;;;;;;;;;;;21.00;39.30;;;;;;5074560;28;19925;-38
2022/03/25 05:36:11;;;;;;;;;;;21.00;39.30;;;;;;5074383;28;19929;-39
2022/03/25 05:38:39;;;;;;;;;;;21.00;39.30;;;;;;5072690;28;19925;-43
2022/03/25 05:41:07;;;;;;;;;;;21.00;39.20;;;;;;5074389;28;19924;-40
2022/03/25 05:43:34;;;;;;;;;;;21.00;39.20;;;;;;5074914;28;19932;-47
2022/03/25 05:46:03;;;;;;;;;;;21.00;39.20;;;;;;5074063;28;20011;-48
2022/03/25 05:48:30;;;;;;;;;;;21.10;39.30;;;;;;5073961;28;19971;-47
2022/03/25 05:50:57;;;;;;;;;;;21.00;39.20;;;;;;5074144;28;19994;-46
2022/03/25 05:53:24;;;;;;;;;;;21.10;39.30;;;;;;5067179;28;19931;-47
2022/03/25 05:55:51;;;;;;;;;;;21.10;39.20;;;;;;5054252;28;19929;-44
2022/03/25 05:58:18;;;;;;;;;;;21.10;39.20;;;;;;5054192;28;19978;-46
2022/03/25 06:00:45;;;;;;;;;;;21.10;39.20;;;;;;5053693;28;19947;-43
2022/03/25 06:03:12;;;;;;;;;;;21.10;39.20;;;;;;5054027;28;20293;-48
2022/03/25 06:05:39;;;;;;;;;;;21.10;39.20;;;;;;5053578;28;19959;-44
2022/03/25 06:08:07;;;;;;;;;;;21.10;39.20;;;;;;5055305;28;19939;-46
2022/03/25 06:10:34;;;;;;;;;;;21.10;39.10;;;;;;5074789;28;19925;-42
2022/03/25 06:13:01;;;;;;;;;;;21.10;39.10;;;;;;5073889;28;20007;-44
2022/03/25 06:15:29;;;;;;;;;;;21.10;39.10;;;;;;5073937;28;19925;-44
2022/03/25 06:17:56;;;;;;;;;;;21.10;39.10;;;;;;5073228;28;19975;-46
2022/03/25 06:20:23;;;;;;;;;;;21.10;39.10;;;;;;5073282;28;19924;-45
2022/03/25 06:22:51;;;;;;;;;;;21.10;39.10;;;;;;5073627;28;20023;-45
2022/03/25 06:25:18;;;;;;;;;;;21.10;39.10;;;;;;5072166;28;19956;-40
2022/03/25 06:27:49;;;;;;;;;;;21.10;39.00;;;;;;5073271;28;19924;-41
2022/03/25 06:30:17;;;;;;;;;;;21.10;39.00;;;;;;5073389;28;20023;-40
2022/03/25 06:32:44;;;;;;;;;;;21.10;39.00;;;;;;5073850;28;19924;-41
2022/03/25 06:35:11;;;;;;;;;;;21.10;39.00;;;;;;5073829;28;19970;-40
2022/03/25 06:37:38;;;;;;;;;;;21.10;39.00;;;;;;5074979;28;20338;-48
2022/03/25 06:40:07;;;;;;;;;;;21.20;39.10;;;;;;5060813;28;19978;-40
2022/03/25 06:42:35;;;;;;;;;;;21.20;39.10;;;;;;5057723;28;19925;-41
2022/03/25 06:45:04;;;;;;;;;;;21.20;39.00;;;;;;5057417;28;19924;-40
2022/03/25 06:47:31;;;;;;;;;;;21.20;39.00;;;;;;5057595;28;19924;-40
2022/03/25 06:49:58;;;;;;;;;;;21.20;39.00;;;;;;5057339;28;20343;-45
2022/03/25 06:52:25;;;;;;;;;;;21.20;39.00;;;;;;5057397;28;20344;-45
2022/03/25 06:54:52;;;;;;;;;;;21.20;39.00;;;;;;5068920;28;19971;-48
2022/03/25 06:57:19;;;;;;;;;;;21.20;39.00;;;;;;5077160;28;19925;-49
2022/03/25 06:59:49;;;;;;;;;;;21.20;39.00;;;;;;5077176;28;19982;-46
2022/03/25 07:02:16;;;;;;;;;;;21.20;38.90;;;;;;5077431;28;19925;-42
2022/03/25 07:04:43;;;;;;;;;;;21.20;38.90;;;;;;5077316;28;20261;-42
2022/03/25 07:07:11;;;;;;;;;;;21.20;38.90;;;;;;5076979;28;19928;-42
2022/03/25 07:09:38;;;;;;;;;;;21.20;38.90;;;;;;5075563;28;20044;-39
2022/03/25 07:12:05;;;;;;;;;;;21.20;38.90;;;;;;5077281;28;19928;-39
2022/03/25 07:14:32;;;;;;;;;;;21.20;38.90;;;;;;5076692;28;19946;-43
2022/03/25 07:16:59;;;;;;;;;;;21.20;38.80;;;;;;5077607;28;19964;-47
2022/03/25 07:19:26;;;;;;;;;;;21.20;38.80;;;;;;5077087;28;19929;-40
2022/03/25 07:21:53;;;;;;;;;;;21.20;38.80;;;;;;5076378;28;19928;-44
2022/03/25 07:24:21;;;;;;;;;;;21.20;38.80;;;;;;5075052;28;20396;-40
2022/03/25 07:26:48;;;;;;;;;;;21.20;38.80;;;;;;5076584;28;20388;-41
2022/03/25 07:29:15;;;;;;;;;;;21.30;38.80;;;;;;5076412;28;20431;-42
2022/03/25 07:31:42;;;;;;;;;;;21.30;38.80;;;;;;5076863;28;19994;-41
2022/03/25 07:34:09;;;;;;;;;;;21.30;38.80;;;;;;5076333;28;20027;-44
2022/03/25 07:36:36;;;;;;;;;;;21.30;38.80;;;;;;5076194;28;20417;-39
2022/03/25 07:39:03;;;;;;;;;;;21.30;39.40;;;;;;5075288;28;19925;-40
2022/03/25 07:41:30;;;;;;;;;;;21.30;38.80;;;;;;5076310;28;20069;-40
2022/03/25 07:43:57;;;;;;;;;;;21.30;38.80;;;;;;5077032;28;19932;-41
2022/03/25 07:46:24;;;;;;;;;;;21.30;38.70;;;;;;5076307;28;20360;-42
2022/03/25 07:48:51;;;;;;;;;;;21.30;38.70;;;;;;5075055;28;20422;-40
2022/03/25 07:51:18;;;;;;;;;;;21.30;38.70;;;;;;5076309;28;19964;-40
2022/03/25 07:53:45;;;;;;;;;;;21.30;38.70;;;;;;5076495;28;19980;-40
2022/03/25 07:56:12;;;;;;;;;;;21.30;38.70;;;;;;5074529;28;19925;-41
2022/03/25 07:58:39;;;;;;;;;;;21.30;38.60;;;;;;5076296;28;19925;-40
2022/03/25 08:01:06;;;;;;;;;;;21.30;38.60;;;;;;5076227;28;19925;-41
2022/03/25 08:03:33;;;;;;;;;;;21.30;38.60;;;;;;5075892;28;19954;-40
2022/03/25 08:06:00;;;;;;;;;;;21.30;38.60;;;;;;5076087;28;20011;-40
2022/03/25 08:08:30;;;;;;;;;;;21.30;38.60;;;;;;5076129;28;19931;-41
2022/03/25 08:10:58;;;;;;;;;;;21.30;38.50;;;;;;5060289;28;19968;-40
2022/03/25 08:13:25;;;;;;;;;;;21.30;38.50;;;;;;5055713;28;20008;-41
2022/03/25 08:15:52;;;;;;;;;;;21.40;38.60;;;;;;5055629;28;19951;-41
2022/03/25 08:18:20;;;;;;;;;;;21.40;38.50;;;;;;5056027;28;19924;-40
2022/03/25 08:20:47;;;;;;;;;;;21.40;38.50;;;;;;5055646;28;20020;-40
2022/03/25 08:28:48;;;;;;;;;;;21.40;38.40;;;;;;5055488;28;19963;-40
2022/03/25 08:31:36;;;;;;;;;;;21.40;38.40;;;;;;5055751;28;20384;-39
2022/03/25 08:34:03;;;;;;;;;;;21.40;38.40;;;;;;5055438;28;19960;-42
2022/03/25 08:36:30;;;;;;;;;;;21.40;38.40;;;;;;5055501;28;20360;-40
2022/03/25 08:38:57;;;;;;;;;;;21.40;38.40;;;;;;5055627;28;19964;-40
2022/03/25 08:41:24;;;;;;;;;;;21.40;38.40;;;;;;5070241;28;19931;-40
2022/03/25 08:43:52;;;;;;;;;;;21.40;38.40;;;;;;5075219;28;19990;-41
2022/03/25 08:46:20;;;;;;;;;;;21.50;38.40;;;;;;5075155;28;19924;-42
2022/03/25 08:48:47;;;;;;;;;;;21.50;38.40;;;;;;5075031;28;19924;-43
2022/03/25 08:51:14;;;;;;;;;;;21.50;38.40;;;;;;5075148;28;19928;-40
2022/03/25 08:53:41;;;;;;;;;;;21.50;38.40;;;;;;5074905;28;20494;-39
2022/03/25 08:56:08;;;;;;;;;;;21.50;38.40;;;;;;5062005;28;19975;-40
2022/03/25 08:58:36;;;;;;;;;;;21.50;38.40;;;;;;5054820;28;19932;-49
2022/03/25 09:01:03;;;;;;;;;;;21.50;38.30;;;;;;5054648;28;20019;-48
2022/03/25 09:03:30;;;;;;;;;;;21.50;38.30;;;;;;5055116;28;20304;-43
2022/03/25 09:05:57;;;;;;;;;;;21.50;38.30;;;;;;5054561;28;19924;-44
2022/03/25 09:08:24;;;;;;;;;;;21.50;38.30;;;;;;5054563;28;19925;-44
2022/03/25 09:10:53;;;;;;;;;;;21.50;38.30;;;;;;5072054;28;20023;-46
2022/03/25 09:13:20;;;;;;;;;;;21.60;38.40;;;;;;5074447;28;20009;-48
2022/03/25 09:15:47;;;;;;;;;;;21.60;38.40;;;;;;5074713;28;19925;-44
2022/03/25 09:18:14;;;;;;;;;;;21.60;38.40;;;;;;5074278;28;20015;-41
2022/03/25 09:20:41;;;;;;;;;;;21.60;38.40;;;;;;5073646;28;19939;-40
2022/03/25 09:23:08;;;;;;;;;;;21.60;38.40;;;;;;5074167;28;20384;-41
2022/03/25 09:25:35;;;;;;;;;;;21.60;38.40;;;;;;5072577;28;19960;-44
2022/03/25 09:28:03;;;;;;;;;;;21.60;38.40;;;;;;5074138;28;19928;-41
2022/03/25 09:30:30;;;;;;;;;;;21.60;38.30;;;;;;5075041;28;20352;-39
2022/03/25 09:33:03;;;;;;;;;;;21.60;38.30;;;;;;5074232;28;19935;-40
2022/03/25 09:35:37;;;;;;;;;;;21.60;38.30;;;;;;5074317;28;19924;-42
2022/03/25 09:38:04;;;;;;;;;;;21.60;38.40;;;;;;5074052;28;19925;-40
2022/03/25 09:40:31;;;;;;;;;;;21.60;38.30;;;;;;5072575;28;19968;-41
2022/03/25 09:42:58;;;;;;;;;;;21.60;38.30;;;;;;5074061;28;19924;-44
2022/03/25 09:45:26;;;;;;;;;;;21.70;38.40;;;;;;5074289;28;19924;-41
2022/03/25 09:47:55;;;;;;;;;;;21.70;38.40;;;;;;5073905;28;19924;-43
2022/03/25 09:50:23;;;;;;;;;;;21.70;38.40;;;;;;5074151;28;20365;-45
2022/03/25 09:52:51;;;;;;;;;;;21.70;38.40;;;;;;5073610;28;19924;-43
2022/03/25 09:55:43;;;;;;;;;;;21.70;38.40;;;;;;5072662;28;20027;-40
2022/03/25 09:58:12;;;;;;;;;;;21.70;38.40;;;;;;5074029;28;19925;-42
2022/03/25 10:00:39;;;;;;;;;;;21.70;38.40;;;;;;5073844;28;19974;-40
2022/03/25 10:03:07;;;;;;;;;;;21.70;38.40;;;;;;5073416;28;20007;-42
2022/03/25 10:05:53;;;;;;;;;;;21.70;38.30;;;;;;5073563;28;20441;-46
2022/03/25 10:08:32;;;;;;;;;;;21.70;38.30;;;;;;5073670;28;19925;-40
2022/03/25 10:11:18;;;;;;;;;;;21.70;38.30;;;;;;5072174;28;19950;-45
2022/03/25 10:13:45;;;;;;;;;;;21.70;38.30;;;;;;5073120;28;19972;-43
2022/03/25 10:16:25;;;;;;;;;;;21.70;38.30;;;;;;5073529;28;19967;-49
2022/03/25 10:18:53;;;;;;;;;;;21.70;38.30;;;;;;5074418;28;20019;-45
2022/03/25 10:21:20;;;;;;;;;;;21.80;38.40;;;;;;5073382;28;19924;-40
2022/03/25 10:23:47;;;;;;;;;;;21.80;38.40;;;;;;5073557;28;19975;-41
2022/03/25 10:26:14;;;;;;;;;;;21.80;38.40;;;;;;5071993;28;20437;-47
2022/03/25 10:28:43;;;;;;;;;;;21.80;38.40;;;;;;5074227;28;19929;-40
2022/03/25 10:31:11;;;;;;;;;;;21.80;38.40;;;;;;5073783;28;20344;-39
2022/03/25 10:33:46;;;;;;;;;;;21.80;38.40;;;;;;5073755;28;19940;-40
2022/03/25 10:36:17;;;;;;;;;;;21.80;38.40;;;;;;5073610;28;20403;-41
2022/03/25 10:38:47;;;;;;;;;;;21.80;38.40;;;;;;5073446;28;19955;-46
2022/03/25 10:41:18;;;;;;;;;;;21.80;38.40;;;;;;5067799;28;19987;-40
2022/03/25 10:44:04;;;;;;;;;;;21.80;38.40;;;;;;5053564;28;19932;-40
2022/03/25 10:46:33;;;;;;;;;;;21.80;38.40;;;;;;5053314;28;19970;-46
2022/03/25 10:49:03;;;;;;;;;;;21.80;38.30;;;;;;5053158;28;19976;-46
2022/03/25 10:51:30;;;;;;;;;;;21.80;38.30;;;;;;5053020;28;20097;-40
2022/03/25 10:53:58;;;;;;;;;;;21.80;38.30;;;;;;5053228;28;19933;-43
2022/03/25 10:56:26;;;;;;;;;;;21.80;38.30;;;;;;5052901;28;19925;-39
2022/03/25 10:58:53;;;;;;;;;;;21.80;38.40;;;;;;5053497;28;19928;-39
2022/03/25 11:01:21;;;;;;;;;;;21.80;38.40;;;;;;5053188;28;20392;-40
2022/03/25 11:03:53;;;;;;;;;;;21.80;38.30;;;;;;5053269;28;19925;-42
2022/03/25 11:06:20;;;;;;;;;;;21.80;38.40;;;;;;5052893;28;19979;-46
2022/03/25 11:08:47;;;;;;;;;;;21.80;38.40;;;;;;5053255;28;20015;-44
2022/03/25 11:11:15;;;;;;;;;;;21.80;38.40;;;;;;5053789;28;19929;-39
2022/03/25 11:13:45;;;;;;;;;;;21.80;38.40;;;;;;5073005;28;20086;-39
2022/03/25 11:16:15;;;;;;;;;;;21.80;38.40;;;;;;5073325;28;20036;-42
2022/03/25 11:18:42;;;;;;;;;;;21.80;38.40;;;;;;5073317;28;19926;-39
2022/03/25 11:21:11;;;;;;;;;;;21.80;38.40;;;;;;5072930;28;19974;-40
2022/03/25 11:23:47;;;;;;;;;;;21.80;39.00;;;;;;5074163;28;19972;-40
2022/03/25 11:26:16;;;;;;;;;;;21.80;38.40;;;;;;5075828;28;19975;-41
2022/03/25 11:28:44;;;;;;;;;;;21.80;38.50;;;;;;5059195;28;19936;-41
2022/03/25 11:31:10;;;;;;;;;;;21.80;38.50;;;;;;5076638;28;19963;-40
2022/03/25 11:33:56;;;;;;;;;;;21.80;38.50;;;;;;5076582;28;19924;-40
2022/03/25 11:36:24;;;;;;;;;;;21.80;38.50;;;;;;5076552;28;19982;-41
2022/03/25 11:39:11;;;;;;;;;;;21.80;38.50;;;;;;5076821;28;19971;-39
2022/03/25 11:41:38;;;;;;;;;;;21.80;39.10;;;;;;5074747;28;20758;-42
2022/03/25 11:44:13;;;;;;;;;;;21.80;38.50;;;;;;5076673;28;20264;-41
2022/03/25 11:47:01;;;;;;;;;;;21.80;38.50;;;;;;5076679;28;19954;-39
2022/03/25 11:49:29;;;;;;;;;;;21.80;38.50;;;;;;5065977;28;19925;-41
2022/03/25 11:51:56;;;;;;;;;;;21.80;38.50;;;;;;5076065;28;19931;-45
2022/03/25 11:54:55;;;;;;;;;;;21.80;38.50;;;;;;5076796;28;20407;-40
2022/03/25 11:57:25;;;;;;;;;;;21.80;38.50;;;;;;5013207;28;19952;-46
2022/03/25 11:59:53;;;;;;;;;;;21.80;38.50;;;;;;5014384;28;19925;-41
2022/03/25 12:02:27;;;;;;;;;;;21.80;38.50;;;;;;5014495;28;20400;-39
2022/03/25 12:04:54;;;;;;;;;;;21.80;38.50;;;;;;5014159;28;19932;-40
2022/03/25 12:07:22;;;;;;;;;;;21.80;38.50;;;;;;5014210;28;19929;-39
2022/03/25 12:09:49;;;;;;;;;;;21.80;38.50;;;;;;5014111;28;19956;-40
2022/03/25 12:12:16;;;;;;;;;;;21.80;39.10;;;;;;5012687;28;19934;-40
2022/03/25 12:15:01;;;;;;;;;;;21.80;38.50;;;;;;5014214;28;20353;-39
2022/03/25 12:17:28;;;;;;;;;;;21.80;38.40;;;;;;5014028;28;19926;-48
2022/03/25 12:19:55;;;;;;;;;;;21.80;38.40;;;;;;5014016;28;19945;-43
2022/03/25 12:22:23;;;;;;;;;;;21.80;38.40;;;;;;5013646;28;19947;-49
2022/03/25 12:24:51;;;;;;;;;;;21.80;38.40;;;;;;5013959;28;19929;-47
2022/03/25 12:27:19;;;;;;;;;;;21.80;38.40;;;;;;5012342;28;19957;-46
2022/03/25 12:29:54;;;;;;;;;;;21.80;38.40;;;;;;5013733;28;19926;-49
2022/03/25 12:32:23;;;;;;;;;;;21.80;38.40;;;;;;5013862;28;20372;-46
2022/03/25 12:35:00;;;;;;;;;;;21.80;38.40;;;;;;5015137;28;19926;-41
2022/03/25 12:37:46;;;;;;;;;;;21.80;38.40;;;;;;5015991;28;19925;-47
2022/03/25 12:40:21;;;;;;;;;;;21.80;38.40;;;;;;5016043;28;20033;-44
2022/03/25 12:42:49;;;;;;;;;;;21.80;38.40;;;;;;5021917;28;19979;-50
2022/03/25 12:45:16;;;;;;;;;;;21.80;38.30;;;;;;5035662;28;20400;-46
2022/03/25 12:47:46;;;;;;;;;;;21.80;38.30;;;;;;5035818;28;19949;-45
2022/03/25 12:50:15;;;;;;;;;;;21.80;38.40;;;;;;5035442;28;19984;-46
2022/03/25 12:52:42;;;;;;;;;;;21.80;38.40;;;;;;5035061;28;20444;-49
2022/03/25 12:55:17;;;;;;;;;;;21.80;38.30;;;;;;5035140;28;19986;-46
2022/03/25 12:57:47;;;;;;;;;;;21.80;38.30;;;;;;5033591;28;19925;-39
2022/03/25 13:00:14;;;;;;;;;;;21.80;38.30;;;;;;5035335;28;20016;-41
2022/03/25 13:02:42;;;;;;;;;;;21.80;38.40;;;;;;5035323;28;20016;-41
2022/03/25 13:05:13;;;;;;;;;;;21.90;38.40;;;;;;5035122;28;19931;-45
2022/03/25 13:07:44;;;;;;;;;;;21.80;38.30;;;;;;5035230;28;19925;-47
2022/03/25 13:10:11;;;;;;;;;;;21.80;38.30;;;;;;5035162;28;20024;-46
2022/03/25 13:12:40;;;;;;;;;;;21.90;38.40;;;;;;5033460;28;19983;-50
2022/03/25 13:15:09;;;;;;;;;;;21.80;38.30;;;;;;5035139;28;20047;-40
2022/03/25 13:17:37;;;;;;;;;;;21.80;38.30;;;;;;5034757;28;20380;-40
2022/03/25 13:20:08;;;;;;;;;;;21.80;38.20;;;;;;5034706;28;20426;-42
2022/03/25 13:22:37;;;;;;;;;;;21.80;38.30;;;;;;5067290;28;19924;-41
2022/03/25 13:25:06;;;;;;;;;;;21.80;38.20;;;;;;5074755;28;19924;-43
2022/03/25 13:27:33;;;;;;;;;;;21.80;38.20;;;;;;5072054;28;19928;-40
2022/03/25 13:30:02;;;;;;;;;;;21.80;38.20;;;;;;5054314;28;20023;-41
2022/03/25 13:32:35;;;;;;;;;;;21.80;38.20;;;;;;5054408;28;19925;-41
2022/03/25 13:35:09;;;;;;;;;;;21.80;38.20;;;;;;5054252;28;19924;-41
2022/03/25 13:37:37;;;;;;;;;;;21.80;38.20;;;;;;5054536;28;19929;-41
2022/03/25 13:40:24;;;;;;;;;;;21.80;38.20;;;;;;5054440;28;19979;-40
2022/03/25 13:42:55;;;;;;;;;;;21.80;38.20;;;;;;5055447;28;19990;-41
2022/03/25 13:45:22;;;;;;;;;;;21.80;38.20;;;;;;5056711;28;19924;-39
2022/03/25 13:48:03;;;;;;;;;;;21.80;38.20;;;;;;5073459;28;20011;-40
2022/03/25 13:50:45;;;;;;;;;;;21.80;38.20;;;;;;5074070;28;19971;-40
2022/03/25 13:53:14;;;;;;;;;;;21.80;38.20;;;;;;5073945;28;19930;-42
2022/03/25 13:55:42;;;;;;;;;;;21.80;38.20;;;;;;5073810;28;19968;-41
2022/03/25 13:58:31;;;;;;;;;;;21.80;38.20;;;;;;5072264;28;20015;-43
2022/03/25 14:00:59;;;;;;;;;;;21.80;38.20;;;;;;5073862;28;19924;-39
2022/03/25 14:03:31;;;;;;;;;;;21.80;38.10;;;;;;5074130;28;19931;-39
2022/03/25 14:06:08;;;;;;;;;;;21.80;38.20;;;;;;5073645;28;19925;-39
2022/03/25 14:08:35;;;;;;;;;;;21.80;38.20;;;;;;5073720;28;20026;-40
2022/03/25 14:11:02;;;;;;;;;;;21.80;38.20;;;;;;5073674;28;19978;-43
2022/03/25 14:13:29;;;;;;;;;;;21.80;38.20;;;;;;5067387;28;19925;-39
2022/03/25 14:16:14;;;;;;;;;;;21.80;38.20;;;;;;5053918;28;19932;-43
2022/03/25 14:18:51;;;;;;;;;;;21.80;38.10;;;;;;5053604;28;19951;-41
2022/03/25 14:21:35;;;;;;;;;;;21.80;38.20;;;;;;5053152;28;20447;-42
2022/03/25 14:26:48;;;;;;;;;;;21.80;38.10;;;;;;5053421;28;19976;-41
2022/03/25 14:29:15;;;;;;;;;;;21.80;38.10;;;;;;5062183;28;20019;-39
2022/03/25 14:31:43;;;;;;;;;;;21.80;38.10;;;;;;5073726;28;19950;-41
2022/03/25 14:34:10;;;;;;;;;;;21.80;38.10;;;;;;5073239;28;19925;-41